createdAt,value
2023-05-05T00:01:46.960Z,5.03
2023-05-05T00:04:18.003Z,3.40
2023-05-05T00:06:48.432Z,6.13
2023-05-05T00:09:18.694Z,8.73
2023-05-05T00:11:49.076Z,3.42
2023-05-05T00:14:28.350Z,3.75
2023-05-05T00:16:59.033Z,3.63
2023-05-05T00:19:29.433Z,3.03
2023-05-05T00:21:59.684Z,5.03
2023-05-05T00:24:30.102Z,5.95
2023-05-05T00:27:02.141Z,5.85
2023-05-05T00:29:35.175Z,8.40
2023-05-05T00:32:05.814Z,5.50
2023-05-05T00:34:36.266Z,5.32
2023-05-05T00:37:07.503Z,2.80
2023-05-05T00:39:38.104Z,3.20
2023-05-05T00:42:08.766Z,4.47
2023-05-05T00:44:45.049Z,3.20
2023-05-05T00:47:17.094Z,4.25
2023-05-05T00:49:47.550Z,3.05
2023-05-05T00:52:17.973Z,3.15
2023-05-05T00:54:48.494Z,4.60
2023-05-05T00:57:18.869Z,3.40
2023-05-05T00:59:53.630Z,3.97
2023-05-05T01:02:24.111Z,2.08
2023-05-05T01:04:54.622Z,4.57
2023-05-05T01:07:29.650Z,5.47
2023-05-05T01:10:18.151Z,3.80
2023-05-05T01:13:01.328Z,4.93
2023-05-05T01:15:37.661Z,3.38
2023-05-05T01:18:16.999Z,3.53
2023-05-05T01:20:52.613Z,3.42
2023-05-05T01:23:44.464Z,3.17
2023-05-05T01:26:41.070Z,6.53
2023-05-05T01:29:34.420Z,6.82
2023-05-05T01:32:10.899Z,2.10
2023-05-05T01:34:47.024Z,4.50
2023-05-05T01:37:24.885Z,4.13
2023-05-05T01:39:59.199Z,2.42
2023-05-05T01:45:01.522Z,5.55
2023-05-05T01:47:35.055Z,3.13
2023-05-05T01:50:05.731Z,4.25
2023-05-05T01:52:37.666Z,6.78
2023-05-05T01:55:09.619Z,3.20
2023-05-05T01:57:42.414Z,5.13
2023-05-05T02:00:14.030Z,2.92
2023-05-05T02:02:52.378Z,3.80
2023-05-05T02:05:23.361Z,4.78
2023-05-05T02:07:54.177Z,3.30
2023-05-05T02:10:24.644Z,6.78
2023-05-05T02:12:56.119Z,5.15
2023-05-05T02:15:27.439Z,3.88
2023-05-05T02:18:02.106Z,2.97
2023-05-05T02:20:34.497Z,3.10
2023-05-05T02:23:05.846Z,2.75
2023-05-05T02:25:42.773Z,5.18
2023-05-05T02:28:17.890Z,4.90
2023-05-05T02:30:54.194Z,5.32
2023-05-05T02:33:27.365Z,5.95
2023-05-05T02:35:59.341Z,2.38
2023-05-05T02:38:32.002Z,2.90
2023-05-05T02:41:06.658Z,2.10
2023-05-05T02:43:37.627Z,3.20
2023-05-05T02:46:08.258Z,2.60
2023-05-05T02:48:43.312Z,2.63
2023-05-05T02:51:13.620Z,3.75
2023-05-05T02:53:44.084Z,3.17
2023-05-05T02:56:37.076Z,2.40
2023-05-05T02:59:16.450Z,3.25
2023-05-05T03:01:59.556Z,3.03
2023-05-05T03:04:41.843Z,3.20
2023-05-05T03:07:15.943Z,4.68
2023-05-05T03:09:58.865Z,3.42
2023-05-05T03:12:33.291Z,4.47
2023-05-05T03:15:18.394Z,5.88
2023-05-05T03:17:50.048Z,3.35
2023-05-05T03:20:24.698Z,6.43
2023-05-05T03:22:55.523Z,3.33
2023-05-05T03:25:26.305Z,3.35
2023-05-05T03:27:56.906Z,3.78
2023-05-05T03:30:27.550Z,4.32
2023-05-05T03:32:57.969Z,3.25
2023-05-05T03:35:31.015Z,4.75
2023-05-05T03:38:01.620Z,1.95
2023-05-05T03:40:43.009Z,2.00
2023-05-05T03:43:17.040Z,5.40
2023-05-05T03:45:47.510Z,2.72
2023-05-05T03:48:17.873Z,6.82
2023-05-05T03:50:51.674Z,2.92
2023-05-05T03:53:24.026Z,3.75
2023-05-05T03:55:54.866Z,4.05
2023-05-05T03:58:25.357Z,3.50
2023-05-05T04:00:55.779Z,4.00
2023-05-05T04:03:26.350Z,2.97
2023-05-05T04:05:59.368Z,1.98
2023-05-05T04:08:29.812Z,4.00
2023-05-05T04:11:02.397Z,5.80
2023-05-05T04:13:34.400Z,2.97
2023-05-05T04:16:06.037Z,3.05
2023-05-05T04:18:36.428Z,4.90
2023-05-05T04:21:11.178Z,3.45
2023-05-05T04:23:42.032Z,2.72
2023-05-05T04:26:12.924Z,3.45
2023-05-05T04:28:43.288Z,5.53
2023-05-05T04:31:13.885Z,5.43
2023-05-05T04:33:46.293Z,2.90
2023-05-05T04:36:19.683Z,4.20
2023-05-05T04:38:50.843Z,4.82
2023-05-05T04:41:21.492Z,3.38
2023-05-05T04:43:52.201Z,3.28
2023-05-05T04:46:23.470Z,5.15
2023-05-05T04:48:53.856Z,3.38
2023-05-05T04:51:27.795Z,3.70
2023-05-05T04:53:57.831Z,4.88
2023-05-05T04:56:28.287Z,4.22
2023-05-05T04:58:58.563Z,2.95
2023-05-05T05:01:28.846Z,4.35
2023-05-05T05:03:59.208Z,2.85
2023-05-05T05:06:32.391Z,4.47
2023-05-05T05:09:02.928Z,5.23
2023-05-05T05:11:33.321Z,6.13
2023-05-05T05:14:04.057Z,3.83
2023-05-05T05:16:34.603Z,5.22
2023-05-05T05:19:05.149Z,4.95
2023-05-05T05:21:39.647Z,4.68
2023-05-05T05:24:11.213Z,4.05
2023-05-05T05:26:42.093Z,3.42
2023-05-05T05:29:12.483Z,4.78
2023-05-05T05:31:43.172Z,4.78
2023-05-05T05:34:13.482Z,7.00
2023-05-05T05:36:47.270Z,3.75
2023-05-05T05:39:17.642Z,3.28
2023-05-05T05:41:48.058Z,4.57
2023-05-05T05:44:18.396Z,3.35
2023-05-05T05:46:48.714Z,2.63
2023-05-05T05:49:19.894Z,5.93
2023-05-05T05:51:53.056Z,5.15
2023-05-05T05:54:23.319Z,4.28
2023-05-05T05:56:53.904Z,4.63
2023-05-05T05:59:24.290Z,4.90
2023-05-05T06:01:54.656Z,6.55
2023-05-05T06:04:25.040Z,5.38
2023-05-05T06:06:57.717Z,3.78
2023-05-05T06:09:28.239Z,6.35
2023-05-05T06:11:59.219Z,7.13
2023-05-05T06:14:29.512Z,5.45
2023-05-05T06:16:59.824Z,6.00
2023-05-05T06:19:32.057Z,6.72
2023-05-05T06:22:05.058Z,4.25
2023-05-05T06:24:35.497Z,6.53
2023-05-05T06:27:05.741Z,4.75
2023-05-05T06:29:36.047Z,6.13
2023-05-05T06:32:08.031Z,6.50
2023-05-05T06:34:38.007Z,3.20
2023-05-05T06:37:10.724Z,4.53
2023-05-05T06:39:40.688Z,7.10
2023-05-05T06:42:10.671Z,3.03
2023-05-05T06:44:40.754Z,7.22
2023-05-05T06:47:10.979Z,3.78
2023-05-05T06:49:40.938Z,4.35
2023-05-05T06:52:13.610Z,4.70
2023-05-05T06:54:43.580Z,4.30
2023-05-05T06:57:13.830Z,5.65
2023-05-05T06:59:44.120Z,2.95
2023-05-05T07:02:14.063Z,7.70
2023-05-05T07:04:44.151Z,6.78
2023-05-05T07:07:17.019Z,5.00
2023-05-05T07:09:47.590Z,3.17
2023-05-05T07:12:18.009Z,5.70
2023-05-05T07:14:49.449Z,4.63
2023-05-05T07:17:19.926Z,4.80
2023-05-05T07:19:51.403Z,5.22
2023-05-05T07:22:24.259Z,4.00
2023-05-05T07:24:54.635Z,7.22
2023-05-05T07:27:24.848Z,3.92
2023-05-05T07:29:54.871Z,3.50
2023-05-05T07:32:24.883Z,4.03
2023-05-05T07:34:55.250Z,3.70
2023-05-05T07:37:28.091Z,3.33
2023-05-05T07:39:58.453Z,5.45
2023-05-05T07:42:28.497Z,4.70
2023-05-05T07:44:58.495Z,2.58
2023-05-05T07:47:28.619Z,4.97
2023-05-05T07:49:58.672Z,6.57
2023-05-05T07:52:45.215Z,5.40
2023-05-05T07:55:18.486Z,3.75
2023-05-05T07:57:48.485Z,4.63
2023-05-05T08:00:19.673Z,7.72
2023-05-05T08:02:50.289Z,6.55
2023-05-05T08:05:20.504Z,3.75
2023-05-05T08:07:53.148Z,3.70
2023-05-05T08:10:24.724Z,3.88
2023-05-05T08:12:55.263Z,4.68
2023-05-05T08:15:25.316Z,4.35
2023-05-05T08:17:56.374Z,5.07
2023-05-05T08:20:31.543Z,5.53
2023-05-05T08:23:04.163Z,5.43
2023-05-05T08:25:34.229Z,4.60
2023-05-05T08:28:04.210Z,5.45
2023-05-05T08:30:35.390Z,5.78
2023-05-05T08:33:05.558Z,6.65
2023-05-05T08:35:35.534Z,5.07
2023-05-05T08:38:08.137Z,5.35
2023-05-05T08:40:41.199Z,5.35
2023-05-05T08:43:11.516Z,5.97
2023-05-05T08:45:43.776Z,6.70
2023-05-05T08:48:15.963Z,6.43
2023-05-05T08:50:50.101Z,9.30
2023-05-05T08:53:38.640Z,7.32
2023-05-05T08:56:09.864Z,7.65
2023-05-05T08:58:40.463Z,5.35
2023-05-05T09:01:10.963Z,6.97
2023-05-05T09:03:41.579Z,8.13
2023-05-05T09:06:12.233Z,6.50
2023-05-05T09:08:44.841Z,5.32
2023-05-05T09:11:14.811Z,6.00
2023-05-05T09:13:45.066Z,8.38
2023-05-05T09:16:15.454Z,6.60
2023-05-05T09:18:45.894Z,5.43
2023-05-05T09:21:26.629Z,4.70
2023-05-05T09:24:12.872Z,8.20
2023-05-05T09:26:45.135Z,7.95
2023-05-05T09:29:21.488Z,8.60
2023-05-05T09:32:05.923Z,4.90
2023-05-05T09:34:37.447Z,5.72
2023-05-05T09:37:07.828Z,6.25
2023-05-05T09:39:40.743Z,5.05
2023-05-05T09:42:21.202Z,6.22
2023-05-05T09:44:51.872Z,10.10
2023-05-05T09:47:29.368Z,5.95
2023-05-05T09:50:01.631Z,3.97
2023-05-05T09:52:32.256Z,5.35
2023-05-05T09:55:05.326Z,4.10
2023-05-05T09:57:37.131Z,6.00
2023-05-05T10:00:08.384Z,4.18
2023-05-05T10:02:39.586Z,3.65
2023-05-05T10:05:11.365Z,3.65
2023-05-05T10:07:42.369Z,5.85
2023-05-05T10:10:16.957Z,5.50
2023-05-05T10:12:49.777Z,3.85
2023-05-05T10:15:20.314Z,5.37
2023-05-05T10:18:06.052Z,3.75
2023-05-05T10:20:39.929Z,3.83
2023-05-05T10:23:11.722Z,4.15
2023-05-05T10:25:49.286Z,4.40
2023-05-05T10:28:26.008Z,2.95
2023-05-05T10:30:59.667Z,3.97
2023-05-05T10:33:38.576Z,4.72
2023-05-05T10:36:09.954Z,3.85
2023-05-05T10:38:41.011Z,5.35
2023-05-05T10:41:16.757Z,4.18
2023-05-05T10:43:47.250Z,4.97
2023-05-05T10:46:18.605Z,4.85
2023-05-05T10:48:57.617Z,4.80
2023-05-05T10:51:40.029Z,3.50
2023-05-05T10:54:16.757Z,5.63
2023-05-05T10:56:49.863Z,3.63
2023-05-05T10:59:47.780Z,4.53
2023-05-05T11:02:28.956Z,4.57
2023-05-05T11:05:23.872Z,6.25
2023-05-05T11:07:54.852Z,4.13
2023-05-05T11:10:25.460Z,3.35
2023-05-05T11:13:23.818Z,5.07
2023-05-05T11:15:55.578Z,3.95
2023-05-05T11:18:34.164Z,4.03
2023-05-05T11:21:07.457Z,4.60
2023-05-05T11:23:38.617Z,5.32
2023-05-05T11:26:09.007Z,3.35
2023-05-05T11:28:57.892Z,3.63
2023-05-05T11:31:28.288Z,4.28
2023-05-05T11:33:58.800Z,3.97
2023-05-05T11:36:42.948Z,3.95
2023-05-05T11:39:26.060Z,3.03
2023-05-05T11:42:18.177Z,7.07
2023-05-05T11:44:51.565Z,6.68
2023-05-05T11:47:29.292Z,5.57
2023-05-05T11:49:59.815Z,4.35
2023-05-05T11:52:30.625Z,3.47
2023-05-05T11:55:05.181Z,6.15
2023-05-05T11:57:35.577Z,3.50
2023-05-05T12:00:10.696Z,3.90
2023-05-05T12:02:41.474Z,4.78
2023-05-05T12:05:12.012Z,5.78
2023-05-05T12:07:42.458Z,3.30
2023-05-05T12:10:13.433Z,3.50
2023-05-05T12:12:43.840Z,3.92
2023-05-05T12:15:16.908Z,7.43
2023-05-05T12:17:48.392Z,5.57
2023-05-05T12:20:18.774Z,4.03
2023-05-05T12:22:49.059Z,3.75
2023-05-05T12:25:19.579Z,3.33
2023-05-05T12:27:55.495Z,5.72
2023-05-05T12:30:29.010Z,3.53
2023-05-05T12:33:04.440Z,3.13
2023-05-05T12:35:35.336Z,5.10
2023-05-05T12:38:05.980Z,3.50
2023-05-05T12:40:46.398Z,2.83
2023-05-05T12:43:32.765Z,3.67
2023-05-05T12:46:11.114Z,3.50
2023-05-05T12:48:45.705Z,6.05
2023-05-05T12:51:20.214Z,6.55
2023-05-05T12:53:51.160Z,4.32
2023-05-05T12:56:43.132Z,3.45
2023-05-05T12:59:13.970Z,3.97
2023-05-05T13:01:55.284Z,4.68
2023-05-05T13:04:27.175Z,4.55
2023-05-05T13:07:12.074Z,4.38
2023-05-05T13:09:42.699Z,4.30
2023-05-05T13:12:13.969Z,7.43
2023-05-05T13:14:44.556Z,5.80
2023-05-05T13:17:17.723Z,3.67
2023-05-05T13:19:49.511Z,6.05
2023-05-05T13:22:23.001Z,6.03
2023-05-05T13:24:53.266Z,4.00
2023-05-05T13:27:23.901Z,4.07
2023-05-05T13:29:54.207Z,4.53
2023-05-05T13:32:26.810Z,7.35
2023-05-05T13:34:58.122Z,2.88
2023-05-05T13:37:28.500Z,4.53
2023-05-05T13:39:59.518Z,4.50
2023-05-05T13:42:30.027Z,2.65
2023-05-05T13:45:00.397Z,4.47
2023-05-05T13:47:33.078Z,5.20
2023-05-05T13:50:03.396Z,3.75
2023-05-05T13:52:33.734Z,4.68
2023-05-05T13:55:03.973Z,5.10
2023-05-05T13:57:34.331Z,2.70
2023-05-05T14:00:04.682Z,2.83
2023-05-05T14:02:43.635Z,2.53
2023-05-05T14:05:14.652Z,3.53
2023-05-05T14:07:45.225Z,2.53
2023-05-05T14:10:15.652Z,3.10
2023-05-05T14:12:46.076Z,7.22
2023-05-05T14:15:16.562Z,3.72
2023-05-05T14:17:49.548Z,2.58
2023-05-05T14:20:19.807Z,3.90
2023-05-05T14:22:50.661Z,3.78
2023-05-05T14:25:21.082Z,2.00
2023-05-05T14:27:51.396Z,4.53
2023-05-05T14:30:21.811Z,1.45
2023-05-05T14:32:54.832Z,3.03
2023-05-05T14:35:25.120Z,5.95
2023-05-05T14:37:55.409Z,2.13
2023-05-05T14:40:25.818Z,2.05
2023-05-05T14:42:56.207Z,2.47
2023-05-05T14:45:26.525Z,2.70
2023-05-05T14:47:59.589Z,2.63
2023-05-05T14:50:30.014Z,3.80
2023-05-05T14:53:00.407Z,3.55
2023-05-05T14:55:30.785Z,3.35
2023-05-05T14:58:01.048Z,3.15
2023-05-05T15:00:31.370Z,3.08
2023-05-05T15:03:04.275Z,1.60
2023-05-05T15:05:35.078Z,2.23
2023-05-05T15:08:05.604Z,3.15
2023-05-05T15:10:35.889Z,4.15
2023-05-05T15:13:06.320Z,6.22
2023-05-05T15:15:36.719Z,4.70
2023-05-05T15:18:09.776Z,5.10
2023-05-05T15:20:40.137Z,5.82
2023-05-05T15:23:10.410Z,6.43
2023-05-05T15:25:40.689Z,6.75
2023-05-05T15:28:11.134Z,7.38
2023-05-05T15:30:41.651Z,6.80
2023-05-05T15:33:14.658Z,6.22
2023-05-05T15:35:45.182Z,4.93
2023-05-05T15:38:15.462Z,5.90
2023-05-05T15:40:50.173Z,5.72
2023-05-05T15:43:20.696Z,6.50
2023-05-05T15:45:50.991Z,7.60
2023-05-05T15:48:23.994Z,7.35
2023-05-05T15:50:54.260Z,5.47
2023-05-05T15:53:26.347Z,5.95
2023-05-05T15:55:56.608Z,6.40
2023-05-05T15:58:26.871Z,4.43
2023-05-05T16:00:57.156Z,5.30
2023-05-05T16:03:30.185Z,3.95
2023-05-05T16:06:00.710Z,3.75
2023-05-05T16:08:31.187Z,5.25
2023-05-05T16:11:04.235Z,12.43
2023-05-05T16:13:34.627Z,4.95
2023-05-05T16:16:04.902Z,5.47
2023-05-05T16:18:37.791Z,6.63
2023-05-05T16:21:08.124Z,5.67
2023-05-05T16:23:38.677Z,7.00
2023-05-05T16:26:08.986Z,7.70
2023-05-05T16:28:39.515Z,15.52
2023-05-05T16:31:10.859Z,606.55
2023-05-05T16:33:44.180Z,693.00
2023-05-05T16:36:15.216Z,239.60
2023-05-05T16:38:45.534Z,61.58
2023-05-05T16:41:15.942Z,109.47
2023-05-05T16:43:46.392Z,110.15
2023-05-05T16:46:16.754Z,76.35
2023-05-05T16:48:49.580Z,64.88
2023-05-05T16:51:19.984Z,25.88
2023-05-05T16:53:50.269Z,16.60
2023-05-05T16:56:21.282Z,10.98
2023-05-05T16:58:52.647Z,20.92
2023-05-05T17:01:22.941Z,26.08
2023-05-05T17:04:01.988Z,38.28
2023-05-05T17:06:34.727Z,18.83
2023-05-05T17:09:06.420Z,16.63
2023-05-05T17:11:36.679Z,14.02
2023-05-05T17:14:06.940Z,15.50
2023-05-05T17:16:37.813Z,13.57
2023-05-05T17:19:10.779Z,12.65
2023-05-05T17:21:42.968Z,11.93
2023-05-05T17:24:13.273Z,10.80
2023-05-05T17:26:43.652Z,12.00
2023-05-05T17:29:15.250Z,11.57
2023-05-05T17:31:46.587Z,9.93
2023-05-05T17:34:19.525Z,11.77
2023-05-05T17:36:50.036Z,12.50
2023-05-05T17:39:20.534Z,17.50
2023-05-05T17:41:51.431Z,10.93
2023-05-05T17:44:23.314Z,8.77
2023-05-05T17:46:53.639Z,8.77
2023-05-05T17:49:26.612Z,7.30
2023-05-05T17:51:57.004Z,6.63
2023-05-05T17:54:27.281Z,6.22
2023-05-05T17:56:57.564Z,7.53
2023-05-05T17:59:27.970Z,6.10
2023-05-05T18:01:59.575Z,9.02
2023-05-05T18:04:32.929Z,8.95
2023-05-05T18:07:03.328Z,7.18
2023-05-05T18:09:34.102Z,8.63
2023-05-05T18:12:04.747Z,7.43
2023-05-05T18:14:35.116Z,7.70
2023-05-05T18:17:05.375Z,7.28
2023-05-05T18:19:39.210Z,7.53
2023-05-05T18:24:39.866Z,6.22
2023-05-05T18:27:10.444Z,7.13
2023-05-05T18:29:40.821Z,6.15
2023-05-05T18:32:11.131Z,7.70
2023-05-05T18:34:44.166Z,6.40
2023-05-05T18:37:14.502Z,6.82
2023-05-05T18:39:45.263Z,8.57
2023-05-05T18:42:15.645Z,12.75
2023-05-05T18:44:45.957Z,30.05
2023-05-05T18:47:16.334Z,29.67
2023-05-05T18:49:49.918Z,15.20
2023-05-05T18:52:20.236Z,9.35
2023-05-05T18:54:50.548Z,8.27
2023-05-05T18:57:20.820Z,12.85
2023-05-05T18:59:51.138Z,12.43
2023-05-05T19:02:21.461Z,8.90
2023-05-05T19:04:54.726Z,10.98
2023-05-05T19:07:34.241Z,10.15
2023-05-05T19:10:05.561Z,8.60
2023-05-05T19:12:35.952Z,8.30
2023-05-05T19:15:07.065Z,9.63
2023-05-05T19:17:37.810Z,8.82
2023-05-05T19:20:11.937Z,9.13
2023-05-05T19:22:42.571Z,10.65
2023-05-05T19:25:14.484Z,9.63
2023-05-05T19:27:44.816Z,10.32
2023-05-05T19:30:15.742Z,8.95
2023-05-05T19:32:46.148Z,9.45
2023-05-05T19:35:19.158Z,12.63
2023-05-05T19:37:49.467Z,7.82
2023-05-05T19:40:19.816Z,5.90
2023-05-05T19:42:50.129Z,3.58
2023-05-05T19:45:21.191Z,5.75
2023-05-05T19:47:51.763Z,3.58
2023-05-05T19:50:26.547Z,5.95
2023-05-05T19:52:57.939Z,3.60
2023-05-05T19:55:28.351Z,4.63
2023-05-05T19:57:58.625Z,2.92
2023-05-05T20:00:29.319Z,4.25
2023-05-05T20:02:59.688Z,3.50
2023-05-05T20:05:32.763Z,6.75
2023-05-05T20:08:03.295Z,4.65
2023-05-05T20:10:33.811Z,3.00
2023-05-05T20:13:04.270Z,4.43
2023-05-05T20:15:34.967Z,2.72
2023-05-05T20:18:05.341Z,2.83
2023-05-05T20:20:38.135Z,2.83
2023-05-05T20:23:08.652Z,2.30
2023-05-05T20:25:39.159Z,2.53
2023-05-05T20:28:09.790Z,4.10
2023-05-05T20:30:40.337Z,2.05
2023-05-05T20:33:10.922Z,3.30
2023-05-05T20:35:44.167Z,1.80
2023-05-05T20:38:14.730Z,3.67
2023-05-05T20:40:45.421Z,2.13
2023-05-05T20:43:15.737Z,2.15
2023-05-05T20:45:46.276Z,3.58
2023-05-05T20:48:16.826Z,1.80
2023-05-05T20:50:51.327Z,2.33
2023-05-05T20:53:23.400Z,4.75
2023-05-05T20:55:53.819Z,2.30
2023-05-05T20:58:24.196Z,2.10
2023-05-05T21:00:57.988Z,2.05
2023-05-05T21:03:28.541Z,1.95
2023-05-05T21:06:01.525Z,2.40
2023-05-05T21:08:32.823Z,1.90
2023-05-05T21:11:03.153Z,0.98
2023-05-05T21:13:33.586Z,2.08
2023-05-05T21:16:03.937Z,2.95
2023-05-05T21:18:34.230Z,3.20
2023-05-05T21:21:09.535Z,4.28
2023-05-05T21:23:46.523Z,4.10
2023-05-05T21:26:16.928Z,1.98
2023-05-05T21:28:47.322Z,2.40
2023-05-05T21:31:21.954Z,3.97
2023-05-05T21:33:52.871Z,3.58
2023-05-05T21:36:25.871Z,1.90
2023-05-05T21:38:58.408Z,4.85
2023-05-05T21:41:30.344Z,2.35
2023-05-05T21:44:01.167Z,2.80
2023-05-05T21:46:31.637Z,2.45
2023-05-05T21:49:02.000Z,4.45
2023-05-05T21:51:34.958Z,3.83
2023-05-05T21:54:05.224Z,3.00
2023-05-05T21:56:36.314Z,3.15
2023-05-05T21:59:07.194Z,3.53
2023-05-05T22:01:37.693Z,1.50
2023-05-05T22:04:08.519Z,2.53
2023-05-05T22:06:42.074Z,4.70
2023-05-05T22:09:12.403Z,3.47
2023-05-05T22:11:42.673Z,3.67
2023-05-05T22:14:12.988Z,2.50
2023-05-05T22:16:43.659Z,2.33
2023-05-05T22:19:14.201Z,3.90
2023-05-05T22:21:47.310Z,4.00
2023-05-05T22:24:17.619Z,3.13
2023-05-05T22:26:47.979Z,2.42
2023-05-05T22:29:18.274Z,3.70
2023-05-05T22:31:48.884Z,3.88
2023-05-05T22:34:20.650Z,5.40
2023-05-05T22:36:53.717Z,4.30
2023-05-05T22:39:24.044Z,4.25
2023-05-05T22:41:54.364Z,3.10
2023-05-05T22:44:24.761Z,3.35
2023-05-05T22:46:55.085Z,3.95
2023-05-05T22:49:25.573Z,2.10
2023-05-05T22:51:58.763Z,5.90
2023-05-05T22:54:29.169Z,5.60
2023-05-05T22:57:00.043Z,5.35
2023-05-05T22:59:30.345Z,2.15
2023-05-05T23:02:01.034Z,2.45
2023-05-05T23:04:31.340Z,3.55
2023-05-05T23:07:04.226Z,2.85
2023-05-05T23:09:34.528Z,2.85
2023-05-05T23:12:04.987Z,2.55
2023-05-05T23:14:35.357Z,2.30
2023-05-05T23:17:05.864Z,8.32
2023-05-05T23:19:36.532Z,4.72
2023-05-05T23:22:09.518Z,2.55
2023-05-05T23:24:40.066Z,2.83
2023-05-05T23:27:10.457Z,2.00
2023-05-05T23:29:40.725Z,5.55
2023-05-05T23:32:12.184Z,3.70
2023-05-05T23:34:42.437Z,4.53
2023-05-05T23:37:15.846Z,3.90
2023-05-05T23:39:46.228Z,6.10
2023-05-05T23:42:16.706Z,3.00
2023-05-05T23:44:47.069Z,4.10
2023-05-05T23:47:17.403Z,3.55
2023-05-05T23:49:47.820Z,3.83
2023-05-05T23:52:21.236Z,5.10
2023-05-05T23:54:51.485Z,3.08
2023-05-05T23:57:21.830Z,3.60
2023-05-05T23:59:52.225Z,7.28
